createdAt,value
2023-04-01T00:01:03.234Z,4.20
2023-04-01T00:03:30.575Z,2.47
2023-04-01T00:05:59.554Z,3.93
2023-04-01T00:08:27.212Z,2.83
2023-04-01T00:10:54.012Z,3.70
2023-04-01T00:13:21.057Z,1.97
2023-04-01T00:15:49.470Z,1.60
2023-04-01T00:18:16.472Z,4.00
2023-04-01T00:20:51.391Z,1.80
2023-04-01T00:23:19.982Z,2.27
2023-04-01T00:25:48.766Z,1.80
2023-04-01T00:28:19.804Z,2.07
2023-04-01T00:30:46.788Z,3.47
2023-04-01T00:33:13.402Z,3.80
2023-04-01T00:35:41.364Z,2.80
2023-04-01T00:38:07.762Z,1.50
2023-04-01T00:40:37.337Z,1.93
2023-04-01T00:43:10.799Z,5.50
2023-04-01T00:45:40.434Z,1.33
2023-04-01T00:48:16.972Z,1.50
2023-04-01T00:50:48.602Z,1.80
2023-04-01T00:53:17.089Z,1.60
2023-04-01T00:55:51.075Z,1.60
2023-04-01T00:58:21.251Z,1.40
2023-04-01T01:00:49.850Z,1.27
2023-04-01T01:03:16.807Z,1.50
2023-04-01T01:06:08.626Z,1.30
2023-04-01T01:08:53.295Z,2.43
2023-04-01T01:11:33.625Z,1.60
2023-04-01T01:14:27.857Z,1.67
2023-04-01T01:17:16.514Z,2.10
2023-04-01T01:20:25.397Z,2.53
2023-04-01T01:23:08.375Z,1.70
2023-04-01T01:26:07.016Z,2.27
2023-04-01T01:28:58.020Z,2.10
2023-04-01T01:31:37.568Z,1.80
2023-04-01T01:34:22.895Z,1.90
2023-04-01T01:36:57.349Z,1.63
2023-04-01T01:39:28.812Z,2.73
2023-04-01T01:41:58.278Z,1.43
2023-04-01T01:44:27.592Z,1.40
2023-04-01T01:46:54.061Z,1.60
2023-04-01T01:49:21.048Z,1.53
2023-04-01T01:51:48.981Z,1.40
2023-04-01T01:54:17.458Z,5.00
2023-04-01T01:56:48.443Z,1.80
2023-04-01T01:59:17.012Z,1.50
2023-04-01T02:01:49.482Z,2.10
2023-04-01T02:04:18.121Z,2.30
2023-04-01T02:06:54.622Z,1.60
2023-04-01T02:09:21.400Z,1.77
2023-04-01T02:11:53.068Z,1.43
2023-04-01T02:14:26.951Z,2.53
2023-04-01T02:16:56.767Z,1.20
2023-04-01T02:19:30.426Z,2.00
2023-04-01T02:22:00.502Z,2.37
2023-04-01T02:24:30.928Z,1.90
2023-04-01T02:26:57.344Z,2.70
2023-04-01T02:29:28.803Z,1.87
2023-04-01T02:31:55.897Z,2.10
2023-04-01T02:34:23.787Z,1.30
2023-04-01T02:36:51.353Z,3.00
2023-04-01T02:39:17.986Z,1.30
2023-04-01T02:41:46.212Z,1.37
2023-04-01T02:44:14.431Z,1.53
2023-04-01T02:46:41.504Z,1.90
2023-04-01T02:49:08.230Z,1.80
2023-04-01T02:51:35.015Z,1.67
2023-04-01T02:54:01.851Z,1.50
2023-04-01T02:56:28.974Z,2.03
2023-04-01T02:58:55.559Z,1.50
2023-04-01T03:01:22.379Z,1.97
2023-04-01T03:03:48.929Z,1.93
2023-04-01T03:06:16.747Z,2.20
2023-04-01T03:08:43.448Z,2.50
2023-04-01T03:11:11.236Z,1.93
2023-04-01T03:13:38.000Z,2.37
2023-04-01T03:16:04.787Z,1.83
2023-04-01T03:18:31.230Z,4.83
2023-04-01T03:20:57.806Z,2.03
2023-04-01T03:23:25.158Z,1.90
2023-04-01T03:25:51.871Z,2.07
2023-04-01T03:28:18.367Z,2.00
2023-04-01T03:30:44.852Z,1.43
2023-04-01T03:33:11.496Z,1.63
2023-04-01T03:35:37.910Z,1.63
2023-04-01T03:38:04.443Z,1.60
2023-04-01T03:40:30.974Z,1.97
2023-04-01T03:42:57.493Z,1.83
2023-04-01T03:45:24.008Z,2.63
2023-04-01T03:47:50.581Z,2.47
2023-04-01T03:50:17.101Z,3.57
2023-04-01T03:52:43.477Z,3.20
2023-04-01T03:55:09.883Z,3.90
2023-04-01T03:57:38.658Z,4.77
2023-04-01T04:00:14.903Z,5.30
2023-04-01T04:02:43.668Z,4.60
2023-04-01T04:05:14.149Z,4.50
2023-04-01T04:07:40.646Z,4.87
2023-04-01T04:10:08.815Z,4.80
2023-04-01T04:12:35.481Z,4.33
2023-04-01T04:15:02.137Z,4.10
2023-04-01T04:17:28.530Z,3.20
2023-04-01T04:19:55.095Z,4.63
2023-04-01T04:22:21.848Z,3.30
2023-04-01T04:24:48.206Z,3.40
2023-04-01T04:27:14.590Z,3.40
2023-04-01T04:30:01.334Z,2.87
2023-04-01T04:32:29.331Z,2.80
2023-04-01T04:34:56.489Z,2.47
2023-04-01T04:37:22.849Z,2.77
2023-04-01T04:39:49.416Z,3.33
2023-04-01T04:42:16.175Z,2.77
2023-04-01T04:44:42.623Z,2.57
2023-04-01T04:47:09.076Z,2.40
2023-04-01T04:49:36.387Z,2.70
2023-04-01T04:52:07.398Z,3.00
2023-04-01T04:54:33.751Z,2.40
2023-04-01T04:57:02.043Z,6.43
2023-04-01T04:59:32.743Z,2.43
2023-04-01T05:02:05.197Z,3.53
2023-04-01T05:04:36.082Z,2.90
2023-04-01T05:07:02.504Z,2.93
2023-04-01T05:09:29.491Z,3.47
2023-04-01T05:11:56.106Z,2.63
2023-04-01T05:14:24.156Z,3.47
2023-04-01T05:16:59.690Z,3.63
2023-04-01T05:19:26.225Z,2.87
2023-04-01T05:21:53.815Z,3.63
2023-04-01T05:24:20.314Z,3.87
2023-04-01T05:26:47.243Z,6.87
2023-04-01T05:29:13.612Z,4.77
2023-04-01T05:31:41.194Z,3.00
2023-04-01T05:34:07.976Z,4.23
2023-04-01T05:36:35.118Z,4.20
2023-04-01T05:39:01.458Z,3.40
2023-04-01T05:41:28.423Z,4.40
2023-04-01T05:43:55.013Z,4.80
2023-04-01T05:46:47.573Z,4.37
2023-04-01T05:49:27.682Z,5.37
2023-04-01T05:51:55.832Z,3.70
2023-04-01T05:54:22.288Z,3.43
2023-04-01T05:56:49.001Z,3.53
2023-04-01T05:59:16.129Z,3.30
2023-04-01T06:01:42.618Z,4.33
2023-04-01T06:04:14.928Z,7.50
2023-04-01T06:06:41.328Z,4.60
2023-04-01T06:09:17.158Z,4.50
2023-04-01T06:12:01.681Z,5.23
2023-04-01T06:14:42.703Z,5.83
2023-04-01T06:17:40.954Z,6.60
2023-04-01T06:20:07.585Z,5.70
2023-04-01T06:22:58.513Z,5.07
2023-04-01T06:25:32.906Z,4.40
2023-04-01T06:28:08.468Z,6.00
2023-04-01T06:30:44.595Z,4.70
2023-04-01T06:33:57.000Z,4.53
2023-04-01T06:36:38.787Z,4.17
2023-04-01T06:39:23.468Z,5.30
2023-04-01T06:42:10.230Z,5.73
2023-04-01T06:44:51.112Z,5.20
2023-04-01T06:48:04.994Z,5.33
2023-04-01T06:51:00.782Z,5.80
2023-04-01T06:54:15.760Z,5.40
2023-04-01T06:57:06.624Z,6.20
2023-04-01T06:59:36.069Z,5.53
2023-04-01T07:02:16.346Z,7.03
2023-04-01T07:04:49.381Z,7.03
2023-04-01T07:07:35.571Z,6.97
2023-04-01T07:10:15.372Z,6.50
2023-04-01T07:13:16.858Z,8.23
2023-04-01T07:16:09.508Z,8.37
2023-04-01T07:18:49.292Z,5.87
2023-04-01T07:21:26.315Z,5.73
2023-04-01T07:24:01.339Z,6.60
2023-04-01T07:26:33.815Z,6.50
2023-04-01T07:29:13.214Z,5.77
2023-04-01T07:32:07.885Z,5.77
2023-04-01T07:34:57.983Z,13.33
2023-04-01T07:37:38.808Z,5.57
2023-04-01T07:40:24.307Z,7.23
2023-04-01T07:43:19.124Z,6.00
2023-04-01T07:46:01.662Z,5.63
2023-04-01T07:48:39.486Z,5.20
2023-04-01T07:51:27.708Z,6.00
2023-04-01T07:54:09.184Z,12.90
2023-04-01T07:56:49.684Z,5.77
2023-04-01T07:59:40.517Z,6.20
2023-04-01T08:02:41.346Z,5.30
2023-04-01T08:05:19.874Z,5.90
2023-04-01T08:08:08.275Z,6.33
2023-04-01T08:11:03.844Z,6.87
2023-04-01T08:14:18.592Z,7.23
2023-04-01T08:17:08.594Z,7.17
2023-04-01T08:20:02.746Z,5.77
2023-04-01T08:22:41.447Z,6.13
2023-04-01T08:25:22.796Z,7.03
2023-04-01T08:28:21.779Z,7.63
2023-04-01T08:30:54.000Z,8.27
2023-04-01T08:33:23.142Z,7.07
2023-04-01T08:36:00.665Z,7.50
2023-04-01T08:38:37.060Z,8.60
2023-04-01T08:41:31.509Z,8.40
2023-04-01T08:44:31.927Z,8.83
2023-04-01T08:47:10.735Z,9.20
2023-04-01T08:49:55.941Z,10.33
2023-04-01T08:52:59.584Z,12.03
2023-04-01T08:55:32.948Z,10.43
2023-04-01T08:58:33.342Z,20.97
2023-04-01T09:01:38.346Z,12.70
2023-04-01T09:04:09.120Z,12.70
2023-04-01T09:06:51.757Z,11.97
2023-04-01T09:09:31.096Z,13.80
2023-04-01T09:12:16.350Z,12.87
2023-04-01T09:15:10.690Z,10.53
2023-04-01T09:17:50.303Z,12.57
2023-04-01T09:20:42.797Z,10.60
2023-04-01T09:23:30.222Z,9.97
2023-04-01T09:26:11.789Z,13.60
2023-04-01T09:28:56.879Z,11.47
2023-04-01T09:31:52.372Z,10.30
2023-04-01T09:34:56.005Z,13.27
2023-04-01T09:37:52.554Z,12.47
2023-04-01T09:40:53.806Z,11.73
2023-04-01T09:43:59.039Z,10.93
2023-04-01T09:46:53.981Z,13.13
2023-04-01T09:49:32.854Z,12.10
2023-04-01T09:52:28.722Z,15.03
2023-04-01T09:55:33.946Z,11.50
2023-04-01T09:58:32.415Z,11.70
2023-04-01T10:01:40.347Z,12.77
2023-04-01T10:04:34.402Z,13.23
2023-04-01T10:07:30.379Z,11.43
2023-04-01T10:10:24.003Z,10.93
2023-04-01T10:13:14.719Z,11.13
2023-04-01T10:16:03.595Z,13.23
2023-04-01T10:18:42.537Z,15.17
2023-04-01T10:21:46.590Z,13.87
2023-04-01T10:24:12.985Z,13.17
2023-04-01T10:27:02.436Z,9.73
2023-04-01T10:30:02.660Z,10.47
2023-04-01T10:32:56.894Z,10.50
2023-04-01T10:36:01.378Z,9.23
2023-04-01T10:39:04.027Z,10.17
2023-04-01T10:41:48.657Z,9.40
2023-04-01T10:45:02.695Z,9.07
2023-04-01T10:48:13.090Z,9.77
2023-04-01T10:50:49.017Z,9.03
2023-04-01T10:53:40.306Z,8.73
2023-04-01T10:56:39.984Z,10.07
2023-04-01T10:59:40.258Z,9.07
2023-04-01T11:02:48.022Z,8.97
2023-04-01T11:05:52.161Z,9.70
2023-04-01T11:08:47.273Z,10.80
2023-04-01T11:11:29.295Z,9.97
2023-04-01T11:14:17.725Z,9.77
2023-04-01T11:16:44.091Z,9.57
2023-04-01T11:19:48.001Z,9.13
2023-04-01T11:22:28.098Z,10.97
2023-04-01T11:25:33.193Z,9.57
2023-04-01T11:28:28.629Z,10.27
2023-04-01T11:31:06.701Z,10.67
2023-04-01T11:33:53.089Z,10.93
2023-04-01T11:36:34.957Z,9.17
2023-04-01T11:39:30.408Z,19.10
2023-04-01T11:42:21.072Z,11.17
2023-04-01T11:45:21.179Z,10.10
2023-04-01T11:48:03.956Z,10.27
2023-04-01T11:51:00.776Z,9.93
2023-04-01T11:53:49.529Z,10.20
2023-04-01T11:56:54.375Z,11.63
2023-04-01T11:59:49.776Z,11.13
2023-04-01T12:02:34.790Z,11.00
2023-04-01T12:05:19.865Z,10.63
2023-04-01T12:07:55.570Z,11.00
2023-04-01T12:10:32.760Z,13.33
2023-04-01T12:13:28.835Z,12.30
2023-04-01T12:16:29.375Z,13.60
2023-04-01T12:19:27.191Z,11.53
2023-04-01T12:22:32.574Z,11.30
2023-04-01T12:25:24.030Z,10.93
2023-04-01T12:28:01.317Z,8.57
2023-04-01T12:30:49.639Z,10.03
2023-04-01T12:33:19.083Z,8.20
2023-04-01T12:36:11.117Z,7.23
2023-04-01T12:39:09.056Z,7.43
2023-04-01T12:41:52.976Z,7.57
2023-04-01T12:44:40.805Z,7.33
2023-04-01T12:47:32.746Z,6.83
2023-04-01T12:50:14.424Z,7.03
2023-04-01T12:53:04.669Z,5.80
2023-04-01T12:55:40.585Z,5.73
2023-04-01T12:58:39.312Z,6.47
2023-04-01T13:01:23.877Z,5.93
2023-04-01T13:04:06.640Z,5.60
2023-04-01T13:07:01.306Z,5.87
2023-04-01T13:09:39.525Z,5.43
2023-04-01T13:12:48.950Z,4.93
2023-04-01T13:15:36.749Z,4.80
2023-04-01T13:18:15.414Z,4.87
2023-04-01T13:21:03.613Z,5.10
2023-04-01T13:23:39.198Z,7.30
2023-04-01T13:26:28.257Z,6.07
2023-04-01T13:29:18.564Z,5.23
2023-04-01T13:32:03.204Z,5.60
2023-04-01T13:34:41.015Z,4.27
2023-04-01T13:37:23.936Z,5.07
2023-04-01T13:40:21.337Z,4.10
2023-04-01T13:42:58.437Z,4.73
2023-04-01T13:45:50.212Z,3.77
2023-04-01T13:48:28.253Z,3.60
2023-04-01T13:51:09.488Z,4.13
2023-04-01T13:53:52.420Z,4.03
2023-04-01T13:56:49.864Z,4.30
2023-04-01T14:00:11.774Z,5.27
2023-04-01T14:03:08.285Z,5.30
2023-04-01T14:05:55.613Z,5.17
2023-04-01T14:08:48.103Z,4.80
2023-04-01T14:11:17.460Z,5.37
2023-04-01T14:13:57.106Z,5.50
2023-04-01T14:17:05.904Z,5.70
2023-04-01T14:19:48.277Z,5.67
2023-04-01T14:22:21.125Z,5.77
2023-04-01T14:25:26.128Z,5.83
2023-04-01T14:28:04.301Z,7.87
2023-04-01T14:30:53.741Z,6.40
2023-04-01T14:33:43.989Z,6.47
2023-04-01T14:36:39.227Z,6.83
2023-04-01T14:39:20.024Z,6.70
2023-04-01T14:42:22.044Z,7.20
2023-04-01T14:45:26.536Z,6.47
2023-04-01T14:47:57.978Z,6.07
2023-04-01T14:50:28.566Z,6.87
2023-04-01T14:53:23.928Z,6.73
2023-04-01T14:55:57.265Z,7.33
2023-04-01T14:58:27.115Z,8.13
2023-04-01T15:01:15.566Z,8.00
2023-04-01T15:04:09.644Z,7.87
2023-04-01T15:07:12.342Z,8.70
2023-04-01T15:10:15.165Z,8.23
2023-04-01T15:13:06.464Z,9.13
2023-04-01T15:15:59.685Z,9.07
2023-04-01T15:18:49.229Z,9.50
2023-04-01T15:21:28.430Z,8.93
2023-04-01T15:24:08.872Z,10.43
2023-04-01T15:26:59.860Z,7.27
2023-04-01T15:29:34.231Z,9.43
2023-04-01T15:32:18.684Z,8.87
2023-04-01T15:35:08.786Z,8.47
2023-04-01T15:38:06.539Z,9.30
2023-04-01T15:40:36.176Z,8.30
2023-04-01T15:43:27.452Z,7.63
2023-04-01T15:46:14.842Z,7.77
2023-04-01T15:48:51.806Z,7.60
2023-04-01T15:51:18.878Z,7.50
2023-04-01T15:53:57.628Z,7.97
2023-04-01T15:57:06.931Z,8.10
2023-04-01T15:59:51.591Z,8.33
2023-04-01T16:02:33.920Z,11.33
2023-04-01T16:05:06.527Z,10.33
2023-04-01T16:07:48.093Z,9.33
2023-04-01T16:10:29.850Z,8.50
2023-04-01T16:13:34.242Z,8.13
2023-04-01T16:16:09.651Z,6.43
2023-04-01T16:19:08.195Z,7.37
2023-04-01T16:21:44.162Z,5.27
2023-04-01T16:24:33.672Z,6.37
2023-04-01T16:27:11.448Z,5.43
2023-04-01T16:30:03.980Z,6.20
2023-04-01T16:32:54.545Z,6.20
2023-04-01T16:35:42.347Z,5.40
2023-04-01T16:38:26.113Z,11.63
2023-04-01T16:41:15.588Z,6.40
2023-04-01T16:43:47.896Z,5.63
2023-04-01T16:46:39.422Z,5.93
2023-04-01T16:49:11.749Z,5.83
2023-04-01T16:51:52.930Z,6.43
2023-04-01T16:54:21.979Z,6.33
2023-04-01T16:57:17.007Z,6.33
2023-04-01T17:00:04.375Z,6.63
2023-04-01T17:02:48.163Z,5.87
2023-04-01T17:05:14.588Z,7.47
2023-04-01T17:08:28.530Z,9.30
2023-04-01T17:11:06.927Z,9.90
2023-04-01T17:13:46.953Z,9.77
2023-04-01T17:16:26.097Z,7.03
2023-04-01T17:19:04.687Z,7.37
2023-04-01T17:21:47.834Z,7.47
2023-04-01T17:24:39.177Z,7.23
2023-04-01T17:27:23.452Z,9.53
2023-04-01T17:30:31.908Z,8.13
2023-04-01T17:33:18.950Z,9.43
2023-04-01T17:36:03.518Z,10.10
2023-04-01T17:38:43.598Z,9.73
2023-04-01T17:41:26.380Z,9.93
2023-04-01T17:44:34.822Z,9.27
2023-04-01T17:47:26.384Z,9.90
2023-04-01T17:49:58.865Z,9.53
2023-04-01T17:52:49.531Z,11.30
2023-04-01T17:55:18.818Z,9.23
2023-04-01T17:58:14.161Z,9.97
2023-04-01T18:01:09.317Z,10.83
2023-04-01T18:03:58.542Z,10.47
2023-04-01T18:06:41.490Z,12.63
2023-04-01T18:09:41.850Z,12.23
2023-04-01T18:12:41.805Z,10.83
2023-04-01T18:15:32.430Z,6.83
2023-04-01T18:18:10.784Z,7.10
2023-04-01T18:20:54.230Z,6.30
2023-04-01T18:23:33.085Z,7.53
2023-04-01T18:26:19.651Z,7.37
2023-04-01T18:29:04.956Z,9.80
2023-04-01T18:31:41.463Z,7.67
2023-04-01T18:34:41.587Z,8.00
2023-04-01T18:37:39.739Z,8.07
2023-04-01T18:40:27.249Z,7.93
2023-04-01T18:43:30.472Z,7.27
2023-04-01T18:46:17.795Z,7.13
2023-04-01T18:49:14.299Z,6.60
2023-04-01T18:51:58.492Z,6.40
2023-04-01T18:54:41.850Z,6.17
2023-04-01T18:57:20.887Z,7.13
2023-04-01T19:00:05.421Z,5.10
2023-04-01T19:02:49.666Z,5.23
2023-04-01T19:05:24.859Z,3.87
2023-04-01T19:07:56.877Z,3.77
2023-04-01T19:10:46.866Z,3.90
2023-04-01T19:13:24.039Z,3.90
2023-04-01T19:16:08.674Z,3.33
2023-04-01T19:18:49.929Z,3.93
2023-04-01T19:21:36.594Z,2.73
2023-04-01T19:24:38.205Z,9.20
2023-04-01T19:27:25.345Z,3.27
2023-04-01T19:30:10.446Z,2.63
2023-04-01T19:33:19.480Z,4.17
2023-04-01T19:36:06.978Z,3.50
2023-04-01T19:38:43.840Z,3.43
2023-04-01T19:41:24.237Z,3.30
2023-04-01T19:44:16.548Z,4.17
2023-04-01T19:46:55.384Z,2.50
2023-04-01T19:49:34.123Z,3.63
2023-04-01T19:52:22.493Z,3.03
2023-04-01T19:55:00.651Z,3.13
2023-04-01T19:57:48.709Z,3.03
2023-04-01T20:00:30.931Z,3.03
2023-04-01T20:03:29.116Z,2.93
2023-04-01T20:06:07.586Z,3.50
2023-04-01T20:08:46.721Z,3.03
2023-04-01T20:11:18.869Z,3.97
2023-04-01T20:14:06.974Z,3.40
2023-04-01T20:16:59.478Z,3.83
2023-04-01T20:19:40.255Z,3.50
2023-04-01T20:22:26.035Z,3.43
2023-04-01T20:24:53.857Z,3.80
2023-04-01T20:27:26.752Z,4.03
2023-04-01T20:30:14.816Z,3.73
2023-04-01T20:33:18.871Z,3.80
2023-04-01T20:36:01.374Z,3.40
2023-04-01T20:38:53.770Z,2.70
2023-04-01T20:42:01.345Z,2.93
2023-04-01T20:44:43.341Z,3.40
2023-04-01T20:47:28.205Z,3.03
2023-04-01T20:50:06.703Z,3.20
2023-04-01T20:52:42.440Z,3.00
2023-04-01T20:55:45.770Z,2.50
2023-04-01T20:58:43.889Z,2.37
2023-04-01T21:01:35.368Z,3.17
2023-04-01T21:04:19.395Z,2.57
2023-04-01T21:07:15.585Z,3.07
2023-04-01T21:09:56.720Z,3.03
2023-04-01T21:12:41.712Z,3.67
2023-04-01T21:15:31.588Z,3.50
2023-04-01T21:18:17.851Z,3.17
2023-04-01T21:21:00.778Z,3.60
2023-04-01T21:23:55.374Z,3.30
2023-04-01T21:26:40.181Z,3.47
2023-04-01T21:29:26.165Z,3.13
2023-04-01T21:32:11.182Z,3.90
2023-04-01T21:35:16.118Z,3.80
2023-04-01T21:37:53.489Z,3.20
2023-04-01T21:40:52.127Z,3.77
2023-04-01T21:44:06.913Z,4.30
2023-04-01T21:46:55.972Z,4.10
2023-04-01T21:49:40.265Z,4.57
2023-04-01T21:52:35.261Z,3.43
2023-04-01T21:55:35.407Z,3.80
2023-04-01T21:58:29.923Z,4.27
2023-04-01T22:01:07.999Z,4.57
2023-04-01T22:03:41.207Z,4.40
2023-04-01T22:07:01.089Z,4.13
2023-04-01T22:09:39.229Z,4.73
2023-04-01T22:12:19.029Z,5.53
2023-04-01T22:14:51.378Z,4.87
2023-04-01T22:17:37.669Z,4.70
2023-04-01T22:20:27.880Z,4.63
2023-04-01T22:23:28.267Z,4.37
2023-04-01T22:26:17.349Z,4.27
2023-04-01T22:28:56.047Z,4.50
2023-04-01T22:31:51.211Z,4.53
2023-04-01T22:34:36.537Z,4.40
2023-04-01T22:37:05.585Z,4.97
2023-04-01T22:39:37.964Z,5.63
2023-04-01T22:42:16.531Z,5.20
2023-04-01T22:45:04.242Z,6.40
2023-04-01T22:47:45.565Z,5.90
2023-04-01T22:50:22.946Z,6.23
2023-04-01T22:52:59.692Z,6.60
2023-04-01T22:55:33.958Z,5.90
2023-04-01T22:58:12.231Z,5.83
2023-04-01T23:00:44.098Z,6.23
2023-04-01T23:03:31.163Z,5.37
2023-04-01T23:06:00.403Z,5.80
2023-04-01T23:09:03.801Z,6.57
2023-04-01T23:11:45.544Z,6.27
2023-04-01T23:14:21.061Z,5.67
2023-04-01T23:16:58.031Z,5.80
2023-04-01T23:19:42.729Z,5.43
2023-04-01T23:22:22.456Z,6.07
2023-04-01T23:24:59.804Z,5.47
2023-04-01T23:27:29.241Z,5.70
2023-04-01T23:29:55.732Z,5.20
2023-04-01T23:32:27.145Z,5.70
2023-04-01T23:34:57.967Z,4.87
2023-04-01T23:37:25.466Z,5.00
2023-04-01T23:39:58.156Z,5.30
2023-04-01T23:42:28.334Z,5.67
2023-04-01T23:44:58.038Z,5.63
2023-04-01T23:47:34.606Z,5.73
2023-04-01T23:50:18.622Z,5.07
2023-04-01T23:52:49.368Z,6.13
2023-04-01T23:55:22.665Z,5.83
2023-04-01T23:58:17.660Z,5.13
